Terminal Aerodrome Forecast
Issued by NWS Wilmington, OH

Home | Current Version | Previous Version | Text Only | Print | Product List | Glossary On
Versions: 1 2 3 4 5 6 7 8 9 10 11 12 13 14 15 16 17 18 19 20 21 22 23 24 25
000
FTUS41 KILN 192300
TAFDAY
TAF
KDAY 192329Z 2000/2024 14017G28KT 4SM -RA BR SCT007 OVC012
      TEMPO 2000/2001 2SM -SHRA BR OVC007
     FM200100 17018G28KT 4SM -SHRA OVC025
     FM200300 21014G22KT P6SM VCSH OVC035
     FM201100 18012G20KT P6SM VCSH OVC015
     FM201500 22019G29KT P6SM VCSH OVC025
     FM202200 25014G24KT P6SM BKN035=

USA.gov is the U.S. government's official web portal to all federal, state and local government web resources and services.